METAR OBSERVATIONS
Looking Back 6 hours

  • KPBF 281153Z AUTO 36006KT 10SM FEW042 14/12 A2997 RMK AO2 SLP145 T01390122 10172 20139 53014 =
  • KPBF 281053Z AUTO 36005KT 10SM SCT043 14/13 A2995 RMK AO2 SLP141 T01440128 =
  • KPBF 280953Z AUTO 02006KT 10SM SCT044 BKN055 15/13 A2994 RMK AO2 SLP135 T01500128 =
  • KPBF 280853Z AUTO 36006KT 10SM BKN045 15/13 A2992 RMK AO2 SLP131 T01500128 50003 =
  • KPBF 280753Z AUTO 36004KT 10SM BKN041 16/13 A2993 RMK AO2 SLP132 T01560133 =
  • KPBF 280653Z AUTO 00000KT 10SM CLR 16/13 A2992 RMK AO2 SLP130 T01610133 =
    ________________________________________